sensor_id;sensor_type;location;lat;lon;timestamp;temperature;humidity
21722;DHT22;11023;48.274;7.794;2023-04-03T00:01:13;5.90;99.90
21722;DHT22;11023;48.274;7.794;2023-04-03T00:03:39;5.90;99.90
21722;DHT22;11023;48.274;7.794;2023-04-03T00:06:07;5.80;99.90
21722;DHT22;11023;48.274;7.794;2023-04-03T00:08:34;5.80;99.90
21722;DHT22;11023;48.274;7.794;2023-04-03T00:11:01;5.80;99.90
21722;DHT22;11023;48.274;7.794;2023-04-03T00:13:26;5.80;99.90
21722;DHT22;11023;48.274;7.794;2023-04-03T00:15:52;5.80;99.90
21722;DHT22;11023;48.274;7.794;2023-04-03T00:18:18;5.80;99.90
21722;DHT22;11023;48.274;7.794;2023-04-03T00:20:43;5.80;99.90
21722;DHT22;11023;48.274;7.794;2023-04-03T00:23:09;5.80;99.90
21722;DHT22;11023;48.274;7.794;2023-04-03T00:25:35;5.80;99.90
21722;DHT22;11023;48.274;7.794;2023-04-03T00:28:02;5.80;99.90
21722;DHT22;11023;48.274;7.794;2023-04-03T00:30:28;5.80;99.90
21722;DHT22;11023;48.274;7.794;2023-04-03T00:32:54;5.80;99.90
21722;DHT22;11023;48.274;7.794;2023-04-03T00:35:21;5.80;99.90
21722;DHT22;11023;48.274;7.794;2023-04-03T00:37:47;5.80;99.90
21722;DHT22;11023;48.274;7.794;2023-04-03T00:40:14;5.80;99.90
21722;DHT22;11023;48.274;7.794;2023-04-03T00:42:41;5.80;99.90
21722;DHT22;11023;48.274;7.794;2023-04-03T00:47:36;5.70;99.90
21722;DHT22;11023;48.274;7.794;2023-04-03T00:50:03;5.70;99.90
21722;DHT22;11023;48.274;7.794;2023-04-03T00:52:30;5.70;99.90
21722;DHT22;11023;48.274;7.794;2023-04-03T00:55:02;5.80;99.90
21722;DHT22;11023;48.274;7.794;2023-04-03T00:57:30;5.70;99.90
21722;DHT22;11023;48.274;7.794;2023-04-03T01:00:00;5.70;99.90
21722;DHT22;11023;48.274;7.794;2023-04-03T01:02:27;5.70;99.90
21722;DHT22;11023;48.274;7.794;2023-04-03T01:04:53;5.70;99.90
21722;DHT22;11023;48.274;7.794;2023-04-03T01:07:22;5.70;99.90
21722;DHT22;11023;48.274;7.794;2023-04-03T01:09:51;5.60;99.90
21722;DHT22;11023;48.274;7.794;2023-04-03T01:12:26;5.60;99.90
21722;DHT22;11023;48.274;7.794;2023-04-03T01:15:16;5.50;99.90
21722;DHT22;11023;48.274;7.794;2023-04-03T01:17:48;5.50;99.90
21722;DHT22;11023;48.274;7.794;2023-04-03T01:25:34;5.40;99.90
21722;DHT22;11023;48.274;7.794;2023-04-03T01:28:02;5.30;99.90
21722;DHT22;11023;48.274;7.794;2023-04-03T01:30:32;5.40;99.90
21722;DHT22;11023;48.274;7.794;2023-04-03T01:32:58;5.40;99.90
21722;DHT22;11023;48.274;7.794;2023-04-03T01:35:24;5.40;99.90
21722;DHT22;11023;48.274;7.794;2023-04-03T01:37:49;5.40;99.90
21722;DHT22;11023;48.274;7.794;2023-04-03T01:40:15;5.30;99.90
21722;DHT22;11023;48.274;7.794;2023-04-03T01:42:41;5.30;99.90
21722;DHT22;11023;48.274;7.794;2023-04-03T01:45:06;5.30;99.90
21722;DHT22;11023;48.274;7.794;2023-04-03T01:47:32;5.30;99.90
21722;DHT22;11023;48.274;7.794;2023-04-03T01:49:58;5.20;99.90
21722;DHT22;11023;48.274;7.794;2023-04-03T01:52:24;5.20;99.90
21722;DHT22;11023;48.274;7.794;2023-04-03T01:54:49;5.20;99.90
21722;DHT22;11023;48.274;7.794;2023-04-03T01:57:16;5.20;99.90
21722;DHT22;11023;48.274;7.794;2023-04-03T01:59:42;5.20;99.90
21722;DHT22;11023;48.274;7.794;2023-04-03T02:02:08;5.20;99.90
21722;DHT22;11023;48.274;7.794;2023-04-03T02:04:33;5.10;99.90
21722;DHT22;11023;48.274;7.794;2023-04-03T02:06:59;5.20;99.90
21722;DHT22;11023;48.274;7.794;2023-04-03T02:09:25;5.20;99.90
21722;DHT22;11023;48.274;7.794;2023-04-03T02:11:52;5.10;99.90
21722;DHT22;11023;48.274;7.794;2023-04-03T02:14:18;5.10;99.90
21722;DHT22;11023;48.274;7.794;2023-04-03T02:16:44;5.00;99.90
21722;DHT22;11023;48.274;7.794;2023-04-03T02:19:09;5.00;99.90
21722;DHT22;11023;48.274;7.794;2023-04-03T02:21:35;5.00;99.90
21722;DHT22;11023;48.274;7.794;2023-04-03T02:24:01;5.00;99.90
21722;DHT22;11023;48.274;7.794;2023-04-03T02:26:26;5.00;99.90
21722;DHT22;11023;48.274;7.794;2023-04-03T02:28:52;5.00;99.90
21722;DHT22;11023;48.274;7.794;2023-04-03T02:31:18;5.00;99.90
21722;DHT22;11023;48.274;7.794;2023-04-03T02:33:43;5.10;99.90
21722;DHT22;11023;48.274;7.794;2023-04-03T02:36:09;5.10;99.90
21722;DHT22;11023;48.274;7.794;2023-04-03T02:38:36;5.00;99.90
21722;DHT22;11023;48.274;7.794;2023-04-03T02:41:06;5.00;99.90
21722;DHT22;11023;48.274;7.794;2023-04-03T02:43:32;5.10;99.90
21722;DHT22;11023;48.274;7.794;2023-04-03T02:45:58;5.10;99.90
21722;DHT22;11023;48.274;7.794;2023-04-03T02:48:24;5.10;99.90
21722;DHT22;11023;48.274;7.794;2023-04-03T02:50:51;5.10;99.90
21722;DHT22;11023;48.274;7.794;2023-04-03T02:53:17;5.10;99.90
21722;DHT22;11023;48.274;7.794;2023-04-03T02:55:43;5.20;99.90
21722;DHT22;11023;48.274;7.794;2023-04-03T02:58:09;5.10;99.90
21722;DHT22;11023;48.274;7.794;2023-04-03T03:00:35;5.10;99.90
21722;DHT22;11023;48.274;7.794;2023-04-03T03:03:00;5.10;99.90
21722;DHT22;11023;48.274;7.794;2023-04-03T03:05:27;5.10;99.90
21722;DHT22;11023;48.274;7.794;2023-04-03T03:07:53;5.10;99.90
21722;DHT22;11023;48.274;7.794;2023-04-03T03:10:19;5.10;99.90
21722;DHT22;11023;48.274;7.794;2023-04-03T03:12:45;5.10;99.90
21722;DHT22;11023;48.274;7.794;2023-04-03T03:15:11;5.10;99.90
21722;DHT22;11023;48.274;7.794;2023-04-03T03:17:37;5.10;99.90
21722;DHT22;11023;48.274;7.794;2023-04-03T03:20:04;5.10;99.90
21722;DHT22;11023;48.274;7.794;2023-04-03T03:22:30;5.10;99.90
21722;DHT22;11023;48.274;7.794;2023-04-03T03:24:56;5.10;99.90
21722;DHT22;11023;48.274;7.794;2023-04-03T03:27:21;5.10;99.90
21722;DHT22;11023;48.274;7.794;2023-04-03T03:29:47;5.10;99.90
21722;DHT22;11023;48.274;7.794;2023-04-03T03:32:12;5.10;99.90
21722;DHT22;11023;48.274;7.794;2023-04-03T03:34:38;5.10;99.90
21722;DHT22;11023;48.274;7.794;2023-04-03T03:37:04;5.10;99.90
21722;DHT22;11023;48.274;7.794;2023-04-03T03:39:30;5.10;99.90
21722;DHT22;11023;48.274;7.794;2023-04-03T03:41:55;5.20;99.90
21722;DHT22;11023;48.274;7.794;2023-04-03T03:44:21;5.10;99.90
21722;DHT22;11023;48.274;7.794;2023-04-03T03:46:47;5.10;99.90
21722;DHT22;11023;48.274;7.794;2023-04-03T03:49:12;5.10;99.90
21722;DHT22;11023;48.274;7.794;2023-04-03T03:51:39;5.10;99.90
21722;DHT22;11023;48.274;7.794;2023-04-03T03:54:05;5.10;99.90
21722;DHT22;11023;48.274;7.794;2023-04-03T03:56:31;5.10;99.90
21722;DHT22;11023;48.274;7.794;2023-04-03T03:58:57;5.10;99.90
21722;DHT22;11023;48.274;7.794;2023-04-03T04:01:24;5.10;99.90
21722;DHT22;11023;48.274;7.794;2023-04-03T04:03:50;5.20;99.90
21722;DHT22;11023;48.274;7.794;2023-04-03T04:06:15;5.10;99.90
21722;DHT22;11023;48.274;7.794;2023-04-03T04:08:41;5.10;99.90
21722;DHT22;11023;48.274;7.794;2023-04-03T04:11:08;5.20;99.90
21722;DHT22;11023;48.274;7.794;2023-04-03T04:13:34;5.00;99.90
21722;DHT22;11023;48.274;7.794;2023-04-03T04:16:00;5.10;99.90
21722;DHT22;11023;48.274;7.794;2023-04-03T04:18:26;5.10;99.90
21722;DHT22;11023;48.274;7.794;2023-04-03T04:20:51;5.10;99.90
21722;DHT22;11023;48.274;7.794;2023-04-03T04:23:18;5.10;99.90
21722;DHT22;11023;48.274;7.794;2023-04-03T04:25:45;5.10;99.90
21722;DHT22;11023;48.274;7.794;2023-04-03T04:28:11;5.10;99.90
21722;DHT22;11023;48.274;7.794;2023-04-03T04:30:37;5.10;99.90
21722;DHT22;11023;48.274;7.794;2023-04-03T04:33:02;5.10;99.90
21722;DHT22;11023;48.274;7.794;2023-04-03T04:35:28;5.10;99.90
21722;DHT22;11023;48.274;7.794;2023-04-03T04:37:54;5.10;99.90
21722;DHT22;11023;48.274;7.794;2023-04-03T04:40:20;5.10;99.90
21722;DHT22;11023;48.274;7.794;2023-04-03T04:42:46;5.10;99.90
21722;DHT22;11023;48.274;7.794;2023-04-03T04:45:12;5.10;99.90
21722;DHT22;11023;48.274;7.794;2023-04-03T04:47:37;5.10;99.90
21722;DHT22;11023;48.274;7.794;2023-04-03T04:50:04;5.10;99.90
21722;DHT22;11023;48.274;7.794;2023-04-03T04:52:30;5.10;99.90
21722;DHT22;11023;48.274;7.794;2023-04-03T04:54:55;5.10;99.90
21722;DHT22;11023;48.274;7.794;2023-04-03T04:57:21;5.10;99.90
21722;DHT22;11023;48.274;7.794;2023-04-03T04:59:47;5.10;99.90
21722;DHT22;11023;48.274;7.794;2023-04-03T05:02:15;5.00;99.90
21722;DHT22;11023;48.274;7.794;2023-04-03T05:04:41;5.10;99.90
21722;DHT22;11023;48.274;7.794;2023-04-03T05:07:06;5.10;99.90
21722;DHT22;11023;48.274;7.794;2023-04-03T05:09:32;5.10;99.90
21722;DHT22;11023;48.274;7.794;2023-04-03T05:11:58;5.00;99.90
21722;DHT22;11023;48.274;7.794;2023-04-03T05:14:23;5.00;99.90
21722;DHT22;11023;48.274;7.794;2023-04-03T05:16:49;5.00;99.90
21722;DHT22;11023;48.274;7.794;2023-04-03T05:19:18;5.00;99.90
21722;DHT22;11023;48.274;7.794;2023-04-03T05:21:44;5.00;99.90
21722;DHT22;11023;48.274;7.794;2023-04-03T05:24:10;5.00;99.90
21722;DHT22;11023;48.274;7.794;2023-04-03T05:26:36;4.90;99.90
21722;DHT22;11023;48.274;7.794;2023-04-03T05:29:02;4.90;99.90
21722;DHT22;11023;48.274;7.794;2023-04-03T05:31:27;4.90;99.90
21722;DHT22;11023;48.274;7.794;2023-04-03T05:33:55;4.90;99.90
21722;DHT22;11023;48.274;7.794;2023-04-03T05:36:21;4.80;99.90
21722;DHT22;11023;48.274;7.794;2023-04-03T05:38:47;4.80;99.90
21722;DHT22;11023;48.274;7.794;2023-04-03T05:41:13;4.80;99.90
21722;DHT22;11023;48.274;7.794;2023-04-03T05:43:39;4.90;99.90
21722;DHT22;11023;48.274;7.794;2023-04-03T05:46:11;4.90;99.90
21722;DHT22;11023;48.274;7.794;2023-04-03T05:48:37;4.90;99.90
21722;DHT22;11023;48.274;7.794;2023-04-03T05:51:03;4.90;99.90
21722;DHT22;11023;48.274;7.794;2023-04-03T05:53:31;4.90;99.90
21722;DHT22;11023;48.274;7.794;2023-04-03T05:55:58;5.00;99.90
21722;DHT22;11023;48.274;7.794;2023-04-03T05:58:24;5.00;99.90
21722;DHT22;11023;48.274;7.794;2023-04-03T06:00:50;5.00;99.90
21722;DHT22;11023;48.274;7.794;2023-04-03T06:03:15;5.10;99.90
21722;DHT22;11023;48.274;7.794;2023-04-03T06:05:42;5.10;99.90
21722;DHT22;11023;48.274;7.794;2023-04-03T06:08:08;5.20;99.90
21722;DHT22;11023;48.274;7.794;2023-04-03T06:10:35;5.30;99.90
21722;DHT22;11023;48.274;7.794;2023-04-03T06:13:01;5.30;99.90
21722;DHT22;11023;48.274;7.794;2023-04-03T06:15:27;5.40;99.90
21722;DHT22;11023;48.274;7.794;2023-04-03T06:17:53;5.50;99.90
21722;DHT22;11023;48.274;7.794;2023-04-03T06:20:19;5.60;99.90
21722;DHT22;11023;48.274;7.794;2023-04-03T06:22:45;5.60;99.90
21722;DHT22;11023;48.274;7.794;2023-04-03T06:25:11;5.70;99.90
21722;DHT22;11023;48.274;7.794;2023-04-03T06:27:37;5.70;99.90
21722;DHT22;11023;48.274;7.794;2023-04-03T06:30:04;5.80;99.90
21722;DHT22;11023;48.274;7.794;2023-04-03T06:32:30;5.80;99.90
21722;DHT22;11023;48.274;7.794;2023-04-03T06:34:55;5.80;99.90
21722;DHT22;11023;48.274;7.794;2023-04-03T06:37:23;5.90;99.90
21722;DHT22;11023;48.274;7.794;2023-04-03T06:39:51;5.80;99.90
21722;DHT22;11023;48.274;7.794;2023-04-03T06:42:17;5.90;99.90
21722;DHT22;11023;48.274;7.794;2023-04-03T06:44:43;5.80;99.90
21722;DHT22;11023;48.274;7.794;2023-04-03T06:47:14;5.90;99.90
21722;DHT22;11023;48.274;7.794;2023-04-03T06:49:40;5.90;99.90
21722;DHT22;11023;48.274;7.794;2023-04-03T06:52:07;6.00;99.90
21722;DHT22;11023;48.274;7.794;2023-04-03T06:54:33;6.00;99.90
21722;DHT22;11023;48.274;7.794;2023-04-03T06:56:58;6.00;99.90
21722;DHT22;11023;48.274;7.794;2023-04-03T06:59:25;6.00;99.90
21722;DHT22;11023;48.274;7.794;2023-04-03T07:01:51;6.20;99.90
21722;DHT22;11023;48.274;7.794;2023-04-03T07:04:17;6.30;99.90
21722;DHT22;11023;48.274;7.794;2023-04-03T07:06:46;6.50;99.90
21722;DHT22;11023;48.274;7.794;2023-04-03T07:09:12;6.60;99.90
21722;DHT22;11023;48.274;7.794;2023-04-03T07:11:38;6.70;99.90
21722;DHT22;11023;48.274;7.794;2023-04-03T07:14:04;6.80;99.90
21722;DHT22;11023;48.274;7.794;2023-04-03T07:16:30;6.90;99.90
21722;DHT22;11023;48.274;7.794;2023-04-03T07:18:57;7.00;99.90
21722;DHT22;11023;48.274;7.794;2023-04-03T07:21:23;7.10;99.90
21722;DHT22;11023;48.274;7.794;2023-04-03T07:23:49;7.20;99.90
21722;DHT22;11023;48.274;7.794;2023-04-03T07:26:14;7.30;99.90
21722;DHT22;11023;48.274;7.794;2023-04-03T07:28:40;7.40;99.90
21722;DHT22;11023;48.274;7.794;2023-04-03T07:31:09;7.40;99.90
21722;DHT22;11023;48.274;7.794;2023-04-03T07:33:36;7.40;99.90
21722;DHT22;11023;48.274;7.794;2023-04-03T07:36:03;7.40;99.90
21722;DHT22;11023;48.274;7.794;2023-04-03T07:38:29;7.40;99.90
21722;DHT22;11023;48.274;7.794;2023-04-03T07:40:55;7.40;99.90
21722;DHT22;11023;48.274;7.794;2023-04-03T07:43:21;7.50;99.90
21722;DHT22;11023;48.274;7.794;2023-04-03T07:45:48;7.60;99.90
21722;DHT22;11023;48.274;7.794;2023-04-03T07:48:18;7.60;99.90
21722;DHT22;11023;48.274;7.794;2023-04-03T07:50:44;7.60;99.90
21722;DHT22;11023;48.274;7.794;2023-04-03T07:53:09;7.60;99.90
21722;DHT22;11023;48.274;7.794;2023-04-03T07:55:35;7.60;99.90
21722;DHT22;11023;48.274;7.794;2023-04-03T07:58:11;7.60;99.90
21722;DHT22;11023;48.274;7.794;2023-04-03T08:00:38;7.60;99.90
21722;DHT22;11023;48.274;7.794;2023-04-03T08:03:05;7.60;99.90
21722;DHT22;11023;48.274;7.794;2023-04-03T08:05:31;7.60;99.90
21722;DHT22;11023;48.274;7.794;2023-04-03T08:07:57;7.60;99.90
21722;DHT22;11023;48.274;7.794;2023-04-03T08:10:23;7.60;99.90
21722;DHT22;11023;48.274;7.794;2023-04-03T08:12:49;7.50;99.90
21722;DHT22;11023;48.274;7.794;2023-04-03T08:15:14;7.50;99.90
21722;DHT22;11023;48.274;7.794;2023-04-03T08:17:41;7.50;99.90
21722;DHT22;11023;48.274;7.794;2023-04-03T08:20:07;7.60;99.90
21722;DHT22;11023;48.274;7.794;2023-04-03T08:22:33;7.70;99.90
21722;DHT22;11023;48.274;7.794;2023-04-03T08:25:00;7.60;99.90
21722;DHT22;11023;48.274;7.794;2023-04-03T08:27:27;7.50;99.90
21722;DHT22;11023;48.274;7.794;2023-04-03T08:29:54;7.50;99.90
21722;DHT22;11023;48.274;7.794;2023-04-03T08:32:20;7.50;99.90
21722;DHT22;11023;48.274;7.794;2023-04-03T08:34:45;7.40;99.90
21722;DHT22;11023;48.274;7.794;2023-04-03T08:37:11;7.50;99.90
21722;DHT22;11023;48.274;7.794;2023-04-03T08:39:37;7.60;99.90
21722;DHT22;11023;48.274;7.794;2023-04-03T08:42:11;7.60;99.90
21722;DHT22;11023;48.274;7.794;2023-04-03T08:45:01;7.80;99.90
21722;DHT22;11023;48.274;7.794;2023-04-03T08:50:07;8.10;99.90
21722;DHT22;11023;48.274;7.794;2023-04-03T08:52:47;8.20;99.90
21722;DHT22;11023;48.274;7.794;2023-04-03T08:57:51;8.20;99.90
21722;DHT22;11023;48.274;7.794;2023-04-03T09:00:23;8.40;99.90
21722;DHT22;11023;48.274;7.794;2023-04-03T09:02:52;8.60;99.90
21722;DHT22;11023;48.274;7.794;2023-04-03T09:05:20;8.50;99.90
21722;DHT22;11023;48.274;7.794;2023-04-03T09:07:51;8.40;99.90
21722;DHT22;11023;48.274;7.794;2023-04-03T09:10:26;8.50;99.90
21722;DHT22;11023;48.274;7.794;2023-04-03T09:16:54;8.30;99.90
21722;DHT22;11023;48.274;7.794;2023-04-03T09:19:33;8.50;99.90
21722;DHT22;11023;48.274;7.794;2023-04-03T09:22:27;8.50;99.90
21722;DHT22;11023;48.274;7.794;2023-04-03T09:25:10;8.60;99.90
21722;DHT22;11023;48.274;7.794;2023-04-03T09:27:37;8.70;99.90
21722;DHT22;11023;48.274;7.794;2023-04-03T09:30:03;8.70;99.90
21722;DHT22;11023;48.274;7.794;2023-04-03T09:32:31;8.60;99.90
21722;DHT22;11023;48.274;7.794;2023-04-03T09:35:02;8.60;99.90
21722;DHT22;11023;48.274;7.794;2023-04-03T09:37:41;8.50;99.90
21722;DHT22;11023;48.274;7.794;2023-04-03T09:40:32;8.50;99.90
21722;DHT22;11023;48.274;7.794;2023-04-03T09:43:21;8.60;99.90
21722;DHT22;11023;48.274;7.794;2023-04-03T09:45:49;8.70;99.90
21722;DHT22;11023;48.274;7.794;2023-04-03T09:48:19;8.70;99.90
21722;DHT22;11023;48.274;7.794;2023-04-03T09:56:00;9.00;99.90
21722;DHT22;11023;48.274;7.794;2023-04-03T09:58:36;8.90;99.90
21722;DHT22;11023;48.274;7.794;2023-04-03T10:01:03;9.10;99.90
21722;DHT22;11023;48.274;7.794;2023-04-03T10:03:36;8.60;99.90
21722;DHT22;11023;48.274;7.794;2023-04-03T10:06:22;8.50;99.90
21722;DHT22;11023;48.274;7.794;2023-04-03T10:09:00;8.50;99.90
21722;DHT22;11023;48.274;7.794;2023-04-03T10:11:26;8.50;99.90
21722;DHT22;11023;48.274;7.794;2023-04-03T10:13:57;8.70;99.90
21722;DHT22;11023;48.274;7.794;2023-04-03T10:16:48;8.70;99.90
21722;DHT22;11023;48.274;7.794;2023-04-03T10:19:40;8.90;99.90
21722;DHT22;11023;48.274;7.794;2023-04-03T10:38:33;9.70;99.90
21722;DHT22;11023;48.274;7.794;2023-04-03T10:46:35;10.10;99.90
21722;DHT22;11023;48.274;7.794;2023-04-03T10:57:46;10.60;99.90
21722;DHT22;11023;48.274;7.794;2023-04-03T11:00:19;10.90;99.90
21722;DHT22;11023;48.274;7.794;2023-04-03T11:03:00;11.00;99.90
21722;DHT22;11023;48.274;7.794;2023-04-03T11:05:42;11.20;99.90
21722;DHT22;11023;48.274;7.794;2023-04-03T11:08:27;11.40;99.90
21722;DHT22;11023;48.274;7.794;2023-04-03T11:10:58;11.40;99.90
21722;DHT22;11023;48.274;7.794;2023-04-03T11:13:34;11.40;99.90
21722;DHT22;11023;48.274;7.794;2023-04-03T11:16:01;11.40;99.90
21722;DHT22;11023;48.274;7.794;2023-04-03T11:21:16;11.20;99.90
21722;DHT22;11023;48.274;7.794;2023-04-03T11:23:46;11.00;99.90
21722;DHT22;11023;48.274;7.794;2023-04-03T11:26:18;11.20;99.90
21722;DHT22;11023;48.274;7.794;2023-04-03T11:28:46;11.30;99.90
21722;DHT22;11023;48.274;7.794;2023-04-03T11:34:13;11.50;99.90
21722;DHT22;11023;48.274;7.794;2023-04-03T11:36:49;11.70;99.90
21722;DHT22;11023;48.274;7.794;2023-04-03T11:39:23;11.80;99.90
21722;DHT22;11023;48.274;7.794;2023-04-03T11:41:50;11.80;99.90
21722;DHT22;11023;48.274;7.794;2023-04-03T11:44:36;11.80;99.90
21722;DHT22;11023;48.274;7.794;2023-04-03T11:47:06;11.40;99.90
21722;DHT22;11023;48.274;7.794;2023-04-03T11:49:53;11.50;99.90
21722;DHT22;11023;48.274;7.794;2023-04-03T12:35:05;11.00;99.90
21722;DHT22;11023;48.274;7.794;2023-04-03T12:43:22;10.40;99.90
21722;DHT22;11023;48.274;7.794;2023-04-03T12:48:27;10.30;99.90
21722;DHT22;11023;48.274;7.794;2023-04-03T12:50:54;10.30;99.90
21722;DHT22;11023;48.274;7.794;2023-04-03T12:53:47;10.40;99.90
21722;DHT22;11023;48.274;7.794;2023-04-03T12:56:32;10.40;99.90
21722;DHT22;11023;48.274;7.794;2023-04-03T12:59:20;10.50;99.90
21722;DHT22;11023;48.274;7.794;2023-04-03T13:02:00;10.60;99.90
21722;DHT22;11023;48.274;7.794;2023-04-03T13:04:31;10.60;99.90
21722;DHT22;11023;48.274;7.794;2023-04-03T13:06:57;10.50;99.90
21722;DHT22;11023;48.274;7.794;2023-04-03T13:09:29;10.50;99.90
21722;DHT22;11023;48.274;7.794;2023-04-03T13:12:02;10.70;99.90
21722;DHT22;11023;48.274;7.794;2023-04-03T13:14:29;10.90;99.90
21722;DHT22;11023;48.274;7.794;2023-04-03T13:16:58;11.00;99.90
21722;DHT22;11023;48.274;7.794;2023-04-03T13:19:26;11.10;99.90
21722;DHT22;11023;48.274;7.794;2023-04-03T13:22:01;10.90;99.90
21722;DHT22;11023;48.274;7.794;2023-04-03T13:24:28;10.80;99.90
21722;DHT22;11023;48.274;7.794;2023-04-03T13:26:55;10.60;99.90
21722;DHT22;11023;48.274;7.794;2023-04-03T13:29:28;10.50;99.90
21722;DHT22;11023;48.274;7.794;2023-04-03T13:31:55;10.40;99.90
21722;DHT22;11023;48.274;7.794;2023-04-03T13:34:24;10.50;99.90
21722;DHT22;11023;48.274;7.794;2023-04-03T13:41:51;10.70;99.90
21722;DHT22;11023;48.274;7.794;2023-04-03T13:47:21;10.50;99.90
21722;DHT22;11023;48.274;7.794;2023-04-03T13:52:29;10.40;99.90
21722;DHT22;11023;48.274;7.794;2023-04-03T13:54:57;10.40;99.90
21722;DHT22;11023;48.274;7.794;2023-04-03T13:57:24;10.60;99.90
21722;DHT22;11023;48.274;7.794;2023-04-03T13:59:50;10.60;99.90
21722;DHT22;11023;48.274;7.794;2023-04-03T14:04:50;10.50;99.90
21722;DHT22;11023;48.274;7.794;2023-04-03T14:07:18;10.50;99.90
21722;DHT22;11023;48.274;7.794;2023-04-03T14:09:45;10.40;99.90
21722;DHT22;11023;48.274;7.794;2023-04-03T14:12:18;10.40;99.90
21722;DHT22;11023;48.274;7.794;2023-04-03T14:14:46;10.40;99.90
21722;DHT22;11023;48.274;7.794;2023-04-03T14:17:21;10.30;99.90
21722;DHT22;11023;48.274;7.794;2023-04-03T14:19:48;10.00;99.90
21722;DHT22;11023;48.274;7.794;2023-04-03T14:22:26;9.90;99.90
21722;DHT22;11023;48.274;7.794;2023-04-03T14:24:54;10.00;99.90
21722;DHT22;11023;48.274;7.794;2023-04-03T14:27:30;10.10;99.90
21722;DHT22;11023;48.274;7.794;2023-04-03T14:29:59;9.90;99.90
21722;DHT22;11023;48.274;7.794;2023-04-03T14:32:25;9.90;99.90
21722;DHT22;11023;48.274;7.794;2023-04-03T14:34:51;9.90;99.90
21722;DHT22;11023;48.274;7.794;2023-04-03T14:37:24;9.90;99.90
21722;DHT22;11023;48.274;7.794;2023-04-03T14:39:52;9.80;99.90
21722;DHT22;11023;48.274;7.794;2023-04-03T14:42:24;9.60;99.90
21722;DHT22;11023;48.274;7.794;2023-04-03T14:44:52;9.60;99.90
21722;DHT22;11023;48.274;7.794;2023-04-03T14:47:24;9.60;99.90
21722;DHT22;11023;48.274;7.794;2023-04-03T14:49:50;9.60;99.90
21722;DHT22;11023;48.274;7.794;2023-04-03T14:52:24;9.50;99.90
21722;DHT22;11023;48.274;7.794;2023-04-03T14:54:50;9.50;99.90
21722;DHT22;11023;48.274;7.794;2023-04-03T14:57:17;9.40;99.90
21722;DHT22;11023;48.274;7.794;2023-04-03T14:59:44;9.40;99.90
21722;DHT22;11023;48.274;7.794;2023-04-03T15:02:31;9.40;99.90
21722;DHT22;11023;48.274;7.794;2023-04-03T15:04:58;9.30;99.90
21722;DHT22;11023;48.274;7.794;2023-04-03T15:07:27;9.40;99.90
21722;DHT22;11023;48.274;7.794;2023-04-03T15:09:54;9.40;99.90
21722;DHT22;11023;48.274;7.794;2023-04-03T15:12:22;9.30;99.90
21722;DHT22;11023;48.274;7.794;2023-04-03T15:14:47;9.20;99.90
21722;DHT22;11023;48.274;7.794;2023-04-03T15:17:21;9.10;99.90
21722;DHT22;11023;48.274;7.794;2023-04-03T15:19:48;9.10;99.90
21722;DHT22;11023;48.274;7.794;2023-04-03T15:22:18;9.20;99.90
21722;DHT22;11023;48.274;7.794;2023-04-03T15:24:44;9.10;99.90
21722;DHT22;11023;48.274;7.794;2023-04-03T15:27:11;9.00;99.90
21722;DHT22;11023;48.274;7.794;2023-04-03T15:29:38;9.00;99.90
21722;DHT22;11023;48.274;7.794;2023-04-03T15:32:05;8.90;99.90
21722;DHT22;11023;48.274;7.794;2023-04-03T15:34:31;8.90;99.90
21722;DHT22;11023;48.274;7.794;2023-04-03T15:36:56;8.80;99.90
21722;DHT22;11023;48.274;7.794;2023-04-03T15:39:22;8.80;99.90
21722;DHT22;11023;48.274;7.794;2023-04-03T15:41:49;8.80;99.90
21722;DHT22;11023;48.274;7.794;2023-04-03T15:44:17;8.90;99.90
21722;DHT22;11023;48.274;7.794;2023-04-03T15:46:43;9.00;99.90
21722;DHT22;11023;48.274;7.794;2023-04-03T15:49:09;9.10;99.90
21722;DHT22;11023;48.274;7.794;2023-04-03T15:51:35;9.00;99.90
21722;DHT22;11023;48.274;7.794;2023-04-03T15:54:01;9.00;99.90
21722;DHT22;11023;48.274;7.794;2023-04-03T15:56:26;9.00;99.90
21722;DHT22;11023;48.274;7.794;2023-04-03T15:58:52;9.00;99.90
21722;DHT22;11023;48.274;7.794;2023-04-03T16:01:18;8.90;99.90
21722;DHT22;11023;48.274;7.794;2023-04-03T16:03:44;8.90;99.90
21722;DHT22;11023;48.274;7.794;2023-04-03T16:06:17;9.00;99.90
21722;DHT22;11023;48.274;7.794;2023-04-03T16:08:44;9.00;99.90
21722;DHT22;11023;48.274;7.794;2023-04-03T16:11:11;9.00;99.90
21722;DHT22;11023;48.274;7.794;2023-04-03T16:13:37;8.90;99.90
21722;DHT22;11023;48.274;7.794;2023-04-03T16:16:03;9.00;99.90
21722;DHT22;11023;48.274;7.794;2023-04-03T16:18:29;8.90;99.90
21722;DHT22;11023;48.274;7.794;2023-04-03T16:20:55;8.90;99.90
21722;DHT22;11023;48.274;7.794;2023-04-03T16:23:21;9.00;99.90
21722;DHT22;11023;48.274;7.794;2023-04-03T16:25:48;9.00;99.90
21722;DHT22;11023;48.274;7.794;2023-04-03T16:28:15;9.00;99.90
21722;DHT22;11023;48.274;7.794;2023-04-03T16:30:43;9.00;99.90
21722;DHT22;11023;48.274;7.794;2023-04-03T16:33:10;8.80;99.90
21722;DHT22;11023;48.274;7.794;2023-04-03T16:35:36;8.80;99.90
21722;DHT22;11023;48.274;7.794;2023-04-03T16:38:03;8.80;99.90
21722;DHT22;11023;48.274;7.794;2023-04-03T16:40:29;8.70;99.90
21722;DHT22;11023;48.274;7.794;2023-04-03T16:42:54;8.80;99.90
21722;DHT22;11023;48.274;7.794;2023-04-03T16:45:21;8.70;99.90
21722;DHT22;11023;48.274;7.794;2023-04-03T16:47:46;8.60;99.90
21722;DHT22;11023;48.274;7.794;2023-04-03T16:50:12;8.60;99.90
21722;DHT22;11023;48.274;7.794;2023-04-03T16:52:38;8.50;99.90
21722;DHT22;11023;48.274;7.794;2023-04-03T16:55:04;8.50;99.90
21722;DHT22;11023;48.274;7.794;2023-04-03T16:57:31;8.40;99.90
21722;DHT22;11023;48.274;7.794;2023-04-03T16:59:57;8.40;99.90
21722;DHT22;11023;48.274;7.794;2023-04-03T17:02:23;8.30;99.90
21722;DHT22;11023;48.274;7.794;2023-04-03T17:04:53;8.30;99.90
21722;DHT22;11023;48.274;7.794;2023-04-03T17:07:20;8.20;99.90
21722;DHT22;11023;48.274;7.794;2023-04-03T17:09:46;8.30;99.90
21722;DHT22;11023;48.274;7.794;2023-04-03T17:12:12;8.30;99.90
21722;DHT22;11023;48.274;7.794;2023-04-03T17:14:38;8.20;99.90
21722;DHT22;11023;48.274;7.794;2023-04-03T17:17:04;8.20;99.90
21722;DHT22;11023;48.274;7.794;2023-04-03T17:19:30;8.20;99.90
21722;DHT22;11023;48.274;7.794;2023-04-03T17:21:56;8.20;99.90
21722;DHT22;11023;48.274;7.794;2023-04-03T17:24:22;8.20;99.90
21722;DHT22;11023;48.274;7.794;2023-04-03T17:26:48;8.10;99.90
21722;DHT22;11023;48.274;7.794;2023-04-03T17:29:14;8.00;99.90
21722;DHT22;11023;48.274;7.794;2023-04-03T17:31:40;7.90;99.90
21722;DHT22;11023;48.274;7.794;2023-04-03T17:34:07;7.80;99.90
21722;DHT22;11023;48.274;7.794;2023-04-03T17:36:36;7.80;99.90
21722;DHT22;11023;48.274;7.794;2023-04-03T17:39:02;7.70;99.90
21722;DHT22;11023;48.274;7.794;2023-04-03T17:41:28;7.60;99.90
21722;DHT22;11023;48.274;7.794;2023-04-03T17:43:54;7.50;99.90
21722;DHT22;11023;48.274;7.794;2023-04-03T17:46:22;7.50;99.90
21722;DHT22;11023;48.274;7.794;2023-04-03T17:48:48;7.50;99.90
21722;DHT22;11023;48.274;7.794;2023-04-03T17:51:15;7.40;99.90
21722;DHT22;11023;48.274;7.794;2023-04-03T17:53:42;7.40;99.90